Time;durP1;ratioP1;P1;durP2;ratioP2;P2;SDS_P1;SDS_P2;PMS_P1;PMS_P2;Temp;Humidity;BMP_temperature;BMP_pressure;BME280_temperature;BME280_humidity;BME280_pressure;Samples;Min_cycle;Max_cycle;Signal;HPM_P1;HPM_P2
2024/01/31 00:01:38;;;;;;;23.17;21.87;;;;;;;;;;5081184;28;21167;-81
2024/01/31 00:04:05;;;;;;;23.47;22.07;;;;;;;;;;5082144;28;20521;-80
2024/01/31 00:06:32;;;;;;;23.37;21.87;;;;;;;;;;5081242;28;20413;-80
2024/01/31 00:09:00;;;;;;;23.43;22.03;;;;;;;;;;5081522;28;20466;-80
2024/01/31 00:11:29;;;;;;;23.33;22.03;;;;;;;;;;5081218;28;21083;-81
2024/01/31 00:13:58;;;;;;;21.57;20.37;;;;;;;;;;5080558;28;20464;-80
2024/01/31 00:16:25;;;;;;;22.83;21.33;;;;;;;;;;5080632;28;20460;-81
2024/01/31 00:18:53;;;;;;;22.70;21.30;;;;;;;;;;5080472;28;20508;-80
2024/01/31 00:21:20;;;;;;;23.13;21.50;;;;;;;;;;5080958;28;20493;-81
2024/01/31 00:23:49;;;;;;;21.90;20.80;;;;;;;;;;5081292;28;20481;-81
2024/01/31 00:26:18;;;;;;;22.77;21.57;;;;;;;;;;5067335;28;20454;-81
2024/01/31 00:28:45;;;;;;;21.17;20.07;;;;;;;;;;5061054;28;20449;-80
2024/01/31 00:31:12;;;;;;;22.63;21.13;;;;;;;;;;5061125;28;20439;-81
2024/01/31 00:33:40;;;;;;;22.83;21.73;;;;;;;;;;5061560;28;20457;-81
2024/01/31 00:36:08;;;;;;;22.57;21.23;;;;;;;;;;5060124;28;20474;-80
2024/01/31 00:38:36;;;;;;;23.50;21.87;;;;;;;;;;5060387;28;20460;-81
2024/01/31 00:41:03;;;;;;;22.77;21.33;;;;;;;;;;5060824;28;20483;-80
2024/01/31 00:43:31;;;;;;;23.93;22.63;;;;;;;;;;5061044;28;20447;-81
2024/01/31 00:45:58;;;;;;;23.43;22.00;;;;;;;;;;5060730;28;20450;-79
2024/01/31 00:48:25;;;;;;;24.07;22.57;;;;;;;;;;5060731;28;20474;-80
2024/01/31 00:50:52;;;;;;;23.43;22.13;;;;;;;;;;5060890;28;20467;-81
2024/01/31 00:53:19;;;;;;;22.43;21.13;;;;;;;;;;5060488;28;20443;-80
2024/01/31 00:55:48;;;;;;;22.07;20.80;;;;;;;;;;5060493;28;20470;-80
2024/01/31 00:58:15;;;;;;;22.23;20.63;;;;;;;;;;5060919;28;20497;-80
2024/01/31 01:00:44;;;;;;;21.20;19.90;;;;;;;;;;5079991;28;20458;-82
2024/01/31 01:03:11;;;;;;;21.67;20.53;;;;;;;;;;5080476;28;20447;-81
2024/01/31 01:05:39;;;;;;;21.30;20.03;;;;;;;;;;5080259;28;20888;-81
2024/01/31 01:08:06;;;;;;;21.20;19.97;;;;;;;;;;5079065;28;20515;-80
2024/01/31 01:10:33;;;;;;;23.03;21.63;;;;;;;;;;5079438;28;20474;-80
2024/01/31 01:13:03;;;;;;;20.67;19.67;;;;;;;;;;5079674;28;20503;-81
2024/01/31 01:15:30;;;;;;;20.10;19.10;;;;;;;;;;5079468;28;20985;-81
2024/01/31 01:17:59;;;;;;;20.10;18.83;;;;;;;;;;5078760;28;20458;-81
2024/01/31 01:20:26;;;;;;;20.47;19.37;;;;;;;;;;5079070;28;20485;-81
2024/01/31 01:22:55;;;;;;;20.93;19.73;;;;;;;;;;5060277;28;20425;-81
2024/01/31 01:25:22;;;;;;;22.03;20.80;;;;;;;;;;5079511;28;20503;-80
2024/01/31 01:27:51;;;;;;;21.50;20.40;;;;;;;;;;5079192;28;20458;-79
2024/01/31 01:30:18;;;;;;;21.47;20.40;;;;;;;;;;5079172;28;20534;-81
2024/01/31 01:32:45;;;;;;;19.67;18.67;;;;;;;;;;5079069;28;20442;-81
2024/01/31 01:35:15;;;;;;;19.33;18.33;;;;;;;;;;5079291;28;20448;-81
2024/01/31 01:37:42;;;;;;;21.27;19.97;;;;;;;;;;5078209;28;20458;-80
2024/01/31 01:40:10;;;;;;;20.00;19.00;;;;;;;;;;5079025;28;20513;-80
2024/01/31 01:42:38;;;;;;;20.57;19.47;;;;;;;;;;5078724;28;20431;-81
2024/01/31 01:45:06;;;;;;;22.17;20.70;;;;;;;;;;5079416;28;20532;-80
2024/01/31 01:47:33;;;;;;;20.70;19.40;;;;;;;;;;5079266;28;20442;-80
2024/01/31 01:50:02;;;;;;;21.87;20.27;;;;;;;;;;5079297;28;20466;-79
2024/01/31 01:52:31;;;;;;;20.20;19.10;;;;;;;;;;5061701;28;20509;-80
2024/01/31 01:55:02;;;;;;;20.67;19.03;;;;;;;;;;5058459;28;20448;-80
2024/01/31 01:57:30;;;;;;;21.57;20.17;;;;;;;;;;5058462;28;20506;-80
2024/01/31 01:59:58;;;;;;;20.10;18.50;;;;;;;;;;5059263;28;20570;-81
2024/01/31 02:02:28;;;;;;;19.73;18.80;;;;;;;;;;5059286;28;20450;-80
2024/01/31 02:04:55;;;;;;;18.93;18.10;;;;;;;;;;5058480;28;20445;-80
2024/01/31 02:07:26;;;;;;;19.30;17.97;;;;;;;;;;5058370;28;20451;-80
2024/01/31 02:09:55;;;;;;;19.73;18.23;;;;;;;;;;5058506;28;20455;-80
2024/01/31 02:12:24;;;;;;;18.47;17.43;;;;;;;;;;5058922;28;20550;-81
2024/01/31 02:14:52;;;;;;;19.57;18.37;;;;;;;;;;5058224;28;20482;-80
2024/01/31 02:17:20;;;;;;;19.23;17.83;;;;;;;;;;5057923;28;20476;-80
2024/01/31 02:19:46;;;;;;;18.70;17.57;;;;;;;;;;5058618;28;20983;-80
2024/01/31 02:22:18;;;;;;;17.83;16.93;;;;;;;;;;5058929;28;20463;-80
2024/01/31 02:24:45;;;;;;;18.20;17.20;;;;;;;;;;5057967;28;20432;-80
2024/01/31 02:27:13;;;;;;;18.77;17.87;;;;;;;;;;5057431;28;20485;-80
2024/01/31 02:29:40;;;;;;;17.13;16.17;;;;;;;;;;5058682;28;20474;-81
2024/01/31 02:32:08;;;;;;;16.70;16.00;;;;;;;;;;5058638;28;20453;-80
2024/01/31 02:34:35;;;;;;;16.77;15.97;;;;;;;;;;5058527;28;20446;-79
2024/01/31 02:37:02;;;;;;;17.70;16.80;;;;;;;;;;5057531;28;20421;-80
2024/01/31 02:39:33;;;;;;;16.60;15.87;;;;;;;;;;5058645;28;20583;-81
2024/01/31 02:42:00;;;;;;;17.57;16.67;;;;;;;;;;5058558;28;20450;-80
2024/01/31 02:44:27;;;;;;;16.57;15.83;;;;;;;;;;5058355;28;20455;-81
2024/01/31 02:46:54;;;;;;;17.57;16.43;;;;;;;;;;5057931;28;20438;-81
2024/01/31 02:49:21;;;;;;;17.00;16.10;;;;;;;;;;5058876;28;20441;-79
2024/01/31 02:51:48;;;;;;;16.67;15.73;;;;;;;;;;5058899;28;20455;-80
2024/01/31 02:54:15;;;;;;;16.77;15.87;;;;;;;;;;5059120;28;20480;-79
2024/01/31 02:56:44;;;;;;;16.87;16.07;;;;;;;;;;5056837;28;20457;-81
2024/01/31 02:59:11;;;;;;;16.67;15.97;;;;;;;;;;5051474;28;20498;-79
2024/01/31 03:01:44;;;;;;;16.63;15.83;;;;;;;;;;5051454;28;20446;-81
2024/01/31 03:04:11;;;;;;;17.97;17.07;;;;;;;;;;5053072;28;20457;-79
2024/01/31 03:06:38;;;;;;;17.07;16.00;;;;;;;;;;5055140;28;20429;-80
2024/01/31 03:09:05;;;;;;;17.20;16.13;;;;;;;;;;5056202;28;20449;-81
2024/01/31 03:11:33;;;;;;;16.37;15.47;;;;;;;;;;5056772;28;20960;-79
2024/01/31 03:14:01;;;;;;;16.70;15.90;;;;;;;;;;5057527;28;20425;-80
2024/01/31 03:16:30;;;;;;;17.90;16.83;;;;;;;;;;5056486;28;20482;-81
2024/01/31 03:18:58;;;;;;;17.07;16.27;;;;;;;;;;5057368;28;20490;-81
2024/01/31 03:21:25;;;;;;;17.00;16.10;;;;;;;;;;5058362;28;20550;-81
2024/01/31 03:23:52;;;;;;;17.90;16.73;;;;;;;;;;5057981;28;20471;-80
2024/01/31 03:26:20;;;;;;;17.33;16.33;;;;;;;;;;5057940;28;20504;-80
2024/01/31 03:28:47;;;;;;;17.07;16.07;;;;;;;;;;5057850;28;20457;-79
2024/01/31 03:31:15;;;;;;;16.20;15.50;;;;;;;;;;5058033;28;20447;-81
2024/01/31 03:33:42;;;;;;;17.07;16.27;;;;;;;;;;5057239;28;20462;-81
2024/01/31 03:36:12;;;;;;;17.60;16.70;;;;;;;;;;5059661;28;20438;-79
2024/01/31 03:38:39;;;;;;;17.60;16.90;;;;;;;;;;5061426;28;20450;-81
2024/01/31 03:41:08;;;;;;;17.57;16.77;;;;;;;;;;5061560;28;20450;-80
2024/01/31 03:43:36;;;;;;;16.87;15.77;;;;;;;;;;5061014;28;20484;-79
2024/01/31 03:46:06;;;;;;;16.70;16.00;;;;;;;;;;5060857;28;20413;-81
2024/01/31 03:48:34;;;;;;;16.80;16.10;;;;;;;;;;5061103;28;20517;-80
2024/01/31 03:51:01;;;;;;;17.23;16.43;;;;;;;;;;5061068;28;20429;-81
2024/01/31 03:53:29;;;;;;;18.27;17.27;;;;;;;;;;5061160;28;20413;-81
2024/01/31 03:55:56;;;;;;;18.10;17.30;;;;;;;;;;5061058;28;20444;-80
2024/01/31 03:58:24;;;;;;;17.07;16.27;;;;;;;;;;5079918;28;21010;-81
2024/01/31 04:00:51;;;;;;;17.80;16.60;;;;;;;;;;5081335;28;20495;-80
2024/01/31 04:03:20;;;;;;;17.63;16.57;;;;;;;;;;5081568;28;20449;-79
2024/01/31 04:05:49;;;;;;;17.33;16.43;;;;;;;;;;5081460;28;20498;-80
2024/01/31 04:08:16;;;;;;;17.08;16.27;;;;;;;;;;5080503;28;20515;-80
2024/01/31 04:10:43;;;;;;;17.55;16.63;;;;;;;;;;5080402;28;20220;-81
2024/01/31 04:13:11;;;;;;;17.50;16.60;;;;;;;;;;5080440;28;20234;-79
2024/01/31 04:15:37;;;;;;;17.80;16.67;;;;;;;;;;5081009;28;20458;-81
2024/01/31 04:18:05;;;;;;;18.07;16.80;;;;;;;;;;5080215;28;20461;-80
2024/01/31 04:20:32;;;;;;;17.73;16.60;;;;;;;;;;5070166;28;20612;-80
2024/01/31 04:23:00;;;;;;;17.33;16.53;;;;;;;;;;5060135;28;20741;-80
2024/01/31 04:25:27;;;;;;;17.30;16.40;;;;;;;;;;5060577;28;20425;-79
2024/01/31 04:27:54;;;;;;;17.10;16.30;;;;;;;;;;5059868;28;20454;-80
2024/01/31 04:30:21;;;;;;;16.80;16.07;;;;;;;;;;5076713;28;20470;-80
2024/01/31 04:32:49;;;;;;;17.90;17.00;;;;;;;;;;5080323;28;20500;-81
2024/01/31 04:35:16;;;;;;;17.80;16.90;;;;;;;;;;5080544;28;20204;-82
2024/01/31 04:37:45;;;;;;;17.70;16.50;;;;;;;;;;5079574;28;20549;-79
2024/01/31 04:40:14;;;;;;;17.80;16.90;;;;;;;;;;5080003;28;20478;-81
2024/01/31 04:42:41;;;;;;;17.60;16.57;;;;;;;;;;5080112;28;20428;-80
2024/01/31 04:45:09;;;;;;;17.33;16.27;;;;;;;;;;5080325;28;20454;-82
2024/01/31 04:47:36;;;;;;;17.63;16.63;;;;;;;;;;5079062;28;20469;-78
2024/01/31 04:50:04;;;;;;;17.80;16.80;;;;;;;;;;5080312;28;20459;-80
2024/01/31 04:52:33;;;;;;;18.17;17.20;;;;;;;;;;5080258;28;20449;-80
2024/01/31 04:55:00;;;;;;;17.60;16.70;;;;;;;;;;5080173;28;20809;-80
2024/01/31 04:57:29;;;;;;;18.10;17.20;;;;;;;;;;5079456;28;20456;-80
2024/01/31 04:59:56;;;;;;;17.60;16.70;;;;;;;;;;5080251;28;20548;-79
2024/01/31 05:02:23;;;;;;;18.10;17.00;;;;;;;;;;5061143;28;20446;-80
2024/01/31 05:04:51;;;;;;;17.50;16.70;;;;;;;;;;5060190;28;20451;-79
2024/01/31 05:07:19;;;;;;;18.30;17.40;;;;;;;;;;5060872;28;20451;-79
2024/01/31 05:09:46;;;;;;;17.60;16.60;;;;;;;;;;5060096;28;20227;-80
2024/01/31 05:12:14;;;;;;;19.10;17.90;;;;;;;;;;5080229;28;20256;-79
2024/01/31 05:14:42;;;;;;;17.87;16.70;;;;;;;;;;5080846;28;20445;-79
2024/01/31 05:17:14;;;;;;;18.07;17.17;;;;;;;;;;5079343;28;20519;-80
2024/01/31 05:19:41;;;;;;;19.00;17.87;;;;;;;;;;5079616;28;20511;-80
2024/01/31 05:22:09;;;;;;;18.33;17.13;;;;;;;;;;5080848;28;20808;-80
2024/01/31 05:24:36;;;;;;;17.30;16.50;;;;;;;;;;5080609;28;20446;-80
2024/01/31 05:27:05;;;;;;;17.67;16.77;;;;;;;;;;5079293;28;20457;-80
2024/01/31 05:29:32;;;;;;;17.67;16.77;;;;;;;;;;5080002;28;20553;-80
2024/01/31 05:32:01;;;;;;;18.43;17.43;;;;;;;;;;5080314;28;20556;-79
2024/01/31 05:34:28;;;;;;;18.63;17.57;;;;;;;;;;5080001;28;20503;-80
2024/01/31 05:36:56;;;;;;;18.67;17.00;;;;;;;;;;5080074;28;20795;-79
2024/01/31 05:39:23;;;;;;;18.37;17.47;;;;;;;;;;5079710;28;20482;-80
2024/01/31 05:41:52;;;;;;;19.50;17.70;;;;;;;;;;5079264;28;20469;-80
2024/01/31 05:44:20;;;;;;;17.90;17.00;;;;;;;;;;5079786;28;20453;-80
2024/01/31 05:46:47;;;;;;;17.53;16.67;;;;;;;;;;5079727;28;20488;-79
2024/01/31 05:49:16;;;;;;;18.10;17.20;;;;;;;;;;5079720;28;20466;-80
2024/01/31 05:51:43;;;;;;;17.50;16.60;;;;;;;;;;5079369;28;20483;-79
2024/01/31 05:54:10;;;;;;;18.60;17.50;;;;;;;;;;5079566;28;20442;-79
2024/01/31 05:56:38;;;;;;;18.10;16.73;;;;;;;;;;5075020;28;20519;-80
2024/01/31 05:59:05;;;;;;;18.07;16.97;;;;;;;;;;5058849;28;20524;-80
2024/01/31 06:01:32;;;;;;;18.30;17.23;;;;;;;;;;5059074;28;20453;-80
2024/01/31 06:03:59;;;;;;;18.65;17.65;;;;;;;;;;5057130;28;20489;-80
2024/01/31 06:06:28;;;;;;;20.20;19.00;;;;;;;;;;5060657;28;20206;-80
2024/01/31 06:08:55;;;;;;;18.90;17.77;;;;;;;;;;5078119;28;20461;-80
2024/01/31 06:11:23;;;;;;;19.27;18.03;;;;;;;;;;5078640;28;20438;-80
2024/01/31 06:13:50;;;;;;;19.83;18.60;;;;;;;;;;5078088;28;20825;-80
2024/01/31 06:16:17;;;;;;;19.70;18.70;;;;;;;;;;5076081;28;20470;-80
2024/01/31 06:18:44;;;;;;;19.17;18.17;;;;;;;;;;5076421;28;20441;-79
2024/01/31 06:21:12;;;;;;;19.60;18.30;;;;;;;;;;5077054;28;20484;-79
2024/01/31 06:23:42;;;;;;;20.37;18.80;;;;;;;;;;5077248;28;20488;-80
2024/01/31 06:26:09;;;;;;;20.08;18.80;;;;;;;;;;5074779;28;20449;-79
2024/01/31 06:28:38;;;;;;;19.50;18.40;;;;;;;;;;5075732;28;20199;-78
2024/01/31 06:31:13;;;;;;;19.73;18.63;;;;;;;;;;5075579;28;20200;-79
2024/01/31 06:33:41;;;;;;;19.50;18.40;;;;;;;;;;5075813;28;20430;-79
2024/01/31 06:36:09;;;;;;;18.70;17.70;;;;;;;;;;5075810;28;20449;-79
2024/01/31 06:38:36;;;;;;;19.30;18.30;;;;;;;;;;5074713;28;20461;-79
2024/01/31 06:41:04;;;;;;;19.20;18.20;;;;;;;;;;5070732;28;20488;-78
2024/01/31 06:43:33;;;;;;;19.60;18.10;;;;;;;;;;5071232;28;20449;-79
2024/01/31 06:46:02;;;;;;;18.33;17.33;;;;;;;;;;5072563;28;20446;-79
2024/01/31 06:48:31;;;;;;;18.50;17.50;;;;;;;;;;5073571;28;20954;-78
2024/01/31 06:50:59;;;;;;;18.90;17.90;;;;;;;;;;5073861;28;20207;-79
2024/01/31 06:53:27;;;;;;;20.17;18.70;;;;;;;;;;5074306;28;20499;-79
2024/01/31 06:55:54;;;;;;;19.33;18.23;;;;;;;;;;5074675;28;20985;-79
2024/01/31 06:58:23;;;;;;;18.93;17.93;;;;;;;;;;5074818;28;20781;-79
2024/01/31 07:00:53;;;;;;;19.45;18.25;;;;;;;;;;5064283;28;20560;-79
2024/01/31 07:03:21;;;;;;;19.87;18.77;;;;;;;;;;5075369;28;20525;-79
2024/01/31 07:05:48;;;;;;;19.50;18.20;;;;;;;;;;5075311;28;20450;-79
2024/01/31 07:08:15;;;;;;;19.83;18.37;;;;;;;;;;5074445;28;20847;-79
2024/01/31 07:10:42;;;;;;;20.35;18.88;;;;;;;;;;5077668;28;20510;-79
2024/01/31 07:13:10;;;;;;;19.33;18.33;;;;;;;;;;5063081;28;20218;-79
2024/01/31 07:15:41;;;;;;;19.33;18.07;;;;;;;;;;5059910;28;20446;-79
2024/01/31 07:18:08;;;;;;;19.07;18.07;;;;;;;;;;5058627;28;20475;-79
2024/01/31 07:20:35;;;;;;;20.20;19.07;;;;;;;;;;5058875;28;20490;-79
2024/01/31 07:23:02;;;;;;;19.63;18.63;;;;;;;;;;5060470;28;20507;-78
2024/01/31 07:25:29;;;;;;;19.33;18.23;;;;;;;;;;5059349;28;20447;-80
2024/01/31 07:27:56;;;;;;;19.70;18.30;;;;;;;;;;5058548;28;21004;-80
2024/01/31 07:30:23;;;;;;;19.48;18.38;;;;;;;;;;5057726;28;20477;-81
2024/01/31 07:32:51;;;;;;;19.23;18.10;;;;;;;;;;5059587;28;20250;-80
2024/01/31 07:35:18;;;;;;;18.63;17.63;;;;;;;;;;5058496;28;20447;-80
2024/01/31 07:37:45;;;;;;;19.20;18.20;;;;;;;;;;5058775;28;20454;-80
2024/01/31 07:40:13;;;;;;;19.70;18.25;;;;;;;;;;5059271;28;20457;-79
2024/01/31 07:42:41;;;;;;;19.80;18.60;;;;;;;;;;5059056;28;20192;-80
2024/01/31 07:45:09;;;;;;;18.20;17.30;;;;;;;;;;5058728;28;20476;-80
2024/01/31 07:47:37;;;;;;;17.40;16.60;;;;;;;;;;5058127;28;21024;-80
2024/01/31 07:50:08;;;;;;;19.43;18.43;;;;;;;;;;5058142;28;20232;-80
2024/01/31 07:52:35;;;;;;;19.67;18.00;;;;;;;;;;5058550;28;20420;-81
2024/01/31 07:55:03;;;;;;;19.20;18.20;;;;;;;;;;5059323;28;20447;-80
2024/01/31 07:57:30;;;;;;;17.93;17.07;;;;;;;;;;5058588;28;20458;-83
2024/01/31 07:59:57;;;;;;;18.93;17.93;;;;;;;;;;5058393;28;20516;-82
2024/01/31 08:02:25;;;;;;;18.83;17.83;;;;;;;;;;5058857;28;20466;-83
2024/01/31 08:04:54;;;;;;;19.60;18.30;;;;;;;;;;5077345;28;20817;-80
2024/01/31 08:07:23;;;;;;;19.70;18.60;;;;;;;;;;5057305;28;20942;-82
2024/01/31 08:09:51;;;;;;;18.80;17.80;;;;;;;;;;5066410;28;20509;-82
2024/01/31 08:12:18;;;;;;;20.03;18.93;;;;;;;;;;5061073;28;20446;-82
2024/01/31 08:14:45;;;;;;;19.57;18.47;;;;;;;;;;5061759;28;20434;-80
2024/01/31 08:17:12;;;;;;;21.20;19.87;;;;;;;;;;5077095;28;20499;-80
2024/01/31 08:19:40;;;;;;;19.97;18.70;;;;;;;;;;5081334;28;20462;-80
2024/01/31 08:22:08;;;;;;;18.70;17.70;;;;;;;;;;5081402;28;20459;-83
2024/01/31 08:24:36;;;;;;;18.67;17.53;;;;;;;;;;5080299;28;20465;-83
2024/01/31 08:27:03;;;;;;;17.93;17.03;;;;;;;;;;5062478;28;20477;-82
2024/01/31 08:29:30;;;;;;;17.40;16.50;;;;;;;;;;5071693;28;20474;-83
2024/01/31 08:31:57;;;;;;;18.58;17.38;;;;;;;;;;5059639;28;20447;-81
2024/01/31 08:34:24;;;;;;;18.63;17.63;;;;;;;;;;5060397;28;20208;-81
2024/01/31 08:36:51;;;;;;;19.47;18.00;;;;;;;;;;5059634;28;20505;-77
2024/01/31 08:39:19;;;;;;;19.03;17.93;;;;;;;;;;5073580;28;20505;-77
2024/01/31 08:41:48;;;;;;;18.40;17.50;;;;;;;;;;5076488;28;20463;-80
2024/01/31 08:44:15;;;;;;;18.30;17.20;;;;;;;;;;5078928;28;20233;-80
2024/01/31 08:46:42;;;;;;;18.73;17.73;;;;;;;;;;5078353;28;20458;-80
2024/01/31 08:49:09;;;;;;;18.67;17.67;;;;;;;;;;5069486;28;20236;-77
2024/01/31 08:51:38;;;;;;;18.30;17.40;;;;;;;;;;5053624;28;20232;-78
2024/01/31 08:54:06;;;;;;;18.10;17.20;;;;;;;;;;5054404;28;20451;-80
2024/01/31 08:56:33;;;;;;;17.92;17.02;;;;;;;;;;5058707;28;21098;-79
2024/01/31 08:59:01;;;;;;;18.70;17.60;;;;;;;;;;5056882;28;20232;-80
2024/01/31 09:01:28;;;;;;;18.00;17.13;;;;;;;;;;5057659;28;20453;-82
2024/01/31 09:03:55;;;;;;;18.30;17.40;;;;;;;;;;5054852;28;20279;-77
2024/01/31 09:06:24;;;;;;;17.73;16.83;;;;;;;;;;5051873;28;20266;-78
2024/01/31 09:08:52;;;;;;;17.85;16.95;;;;;;;;;;5054878;28;20212;-81
2024/01/31 09:11:19;;;;;;;18.38;17.38;;;;;;;;;;5062347;28;20215;-83
2024/01/31 09:13:47;;;;;;;18.27;17.30;;;;;;;;;;5061041;28;20200;-83
2024/01/31 09:16:16;;;;;;;17.38;16.58;;;;;;;;;;5076404;28;20465;-83
2024/01/31 09:18:43;;;;;;;17.70;16.70;;;;;;;;;;5067603;28;20212;-83
2024/01/31 09:21:10;;;;;;;18.88;17.77;;;;;;;;;;5059655;28;20485;-81
2024/01/31 09:23:37;;;;;;;18.90;17.80;;;;;;;;;;5071378;28;20215;-82
2024/01/31 09:26:05;;;;;;;18.15;17.25;;;;;;;;;;5077721;28;20489;-82
2024/01/31 09:28:32;;;;;;;18.83;17.80;;;;;;;;;;5078535;28;20207;-81
2024/01/31 09:30:59;;;;;;;18.20;17.10;;;;;;;;;;5078049;28;20204;-81
2024/01/31 09:33:28;;;;;;;18.83;17.80;;;;;;;;;;5077629;28;20211;-79
2024/01/31 09:35:55;;;;;;;19.42;18.40;;;;;;;;;;5075655;28;20266;-83
2024/01/31 09:38:25;;;;;;;18.85;17.85;;;;;;;;;;5058309;28;20208;-80
2024/01/31 09:40:52;;;;;;;19.60;18.40;;;;;;;;;;5062695;28;20215;-82
2024/01/31 09:43:20;;;;;;;19.37;18.20;;;;;;;;;;5059328;28;20200;-83
2024/01/31 09:45:48;;;;;;;20.30;18.87;;;;;;;;;;5057199;28;20458;-85
2024/01/31 09:48:17;;;;;;;19.60;18.40;;;;;;;;;;5055680;28;20425;-83
2024/01/31 09:50:52;;;;;;;19.60;18.60;;;;;;;;;;5056668;28;20490;-85
2024/01/31 09:53:20;;;;;;;19.50;18.40;;;;;;;;;;5056044;28;20738;-85
2024/01/31 09:55:48;;;;;;;19.70;18.70;;;;;;;;;;5056343;28;20442;-85
2024/01/31 09:58:15;;;;;;;20.17;18.87;;;;;;;;;;5054974;28;20473;-84
2024/01/31 10:00:43;;;;;;;20.03;18.80;;;;;;;;;;5056345;28;20461;-82
2024/01/31 10:03:10;;;;;;;19.10;18.00;;;;;;;;;;5056739;28;21070;-82
2024/01/31 10:05:37;;;;;;;19.87;18.53;;;;;;;;;;5056013;28;20459;-81
2024/01/31 10:08:06;;;;;;;19.83;18.77;;;;;;;;;;5056317;28;20566;-81
2024/01/31 10:10:34;;;;;;;20.40;19.20;;;;;;;;;;5056676;28;20462;-83
2024/01/31 10:13:01;;;;;;;20.07;18.97;;;;;;;;;;5056693;28;20439;-84
2024/01/31 10:15:31;;;;;;;19.63;18.23;;;;;;;;;;5056560;28;20854;-82
2024/01/31 10:17:59;;;;;;;18.40;17.40;;;;;;;;;;5056386;28;20460;-81
2024/01/31 10:20:26;;;;;;;19.50;18.40;;;;;;;;;;5056551;28;20477;-81
2024/01/31 10:22:53;;;;;;;19.67;18.33;;;;;;;;;;5052691;28;20513;-83
2024/01/31 10:25:22;;;;;;;19.17;17.98;;;;;;;;;;5052655;28;21036;-82
2024/01/31 10:27:51;;;;;;;19.67;18.57;;;;;;;;;;5052880;28;20204;-81
2024/01/31 10:30:18;;;;;;;20.70;19.20;;;;;;;;;;5053386;28;20510;-82
2024/01/31 10:32:46;;;;;;;19.80;18.70;;;;;;;;;;5055628;28;20461;-81
2024/01/31 10:35:14;;;;;;;20.27;19.07;;;;;;;;;;5056209;28;20450;-83
2024/01/31 10:37:41;;;;;;;19.97;18.70;;;;;;;;;;5054993;28;20429;-81
2024/01/31 10:40:10;;;;;;;19.43;18.20;;;;;;;;;;5055264;28;20982;-78
2024/01/31 10:42:38;;;;;;;19.60;18.40;;;;;;;;;;5055655;28;20576;-85
2024/01/31 10:45:06;;;;;;;20.37;18.70;;;;;;;;;;5054999;28;20406;-88
2024/01/31 10:47:34;;;;;;;19.50;18.40;;;;;;;;;;5059772;28;20496;-81
2024/01/31 10:50:02;;;;;;;20.13;18.93;;;;;;;;;;5060763;28;20471;-84
2024/01/31 10:52:32;;;;;;;20.20;19.10;;;;;;;;;;5059440;28;20413;-81
2024/01/31 10:55:01;;;;;;;20.87;19.60;;;;;;;;;;5060243;28;20451;-84
2024/01/31 10:57:29;;;;;;;20.47;19.27;;;;;;;;;;5056830;28;20482;-80
2024/01/31 10:59:58;;;;;;;21.53;20.33;;;;;;;;;;5057022;28;20473;-83
2024/01/31 11:02:30;;;;;;;19.80;18.70;;;;;;;;;;5058440;28;21002;-84
2024/01/31 11:04:59;;;;;;;20.47;19.17;;;;;;;;;;5054996;28;20500;-83
2024/01/31 11:07:26;;;;;;;21.90;20.50;;;;;;;;;;5056128;28;20450;-83
2024/01/31 11:09:55;;;;;;;21.47;20.17;;;;;;;;;;5055937;28;20578;-80
2024/01/31 11:12:22;;;;;;;22.10;20.50;;;;;;;;;;5054403;28;20451;-80
2024/01/31 11:14:52;;;;;;;20.93;19.73;;;;;;;;;;5054076;28;21000;-80
2024/01/31 11:17:22;;;;;;;22.20;20.90;;;;;;;;;;5053757;28;20498;-80
2024/01/31 11:19:50;;;;;;;22.20;20.60;;;;;;;;;;5054891;28;20470;-80
2024/01/31 11:22:17;;;;;;;21.73;20.23;;;;;;;;;;5057081;28;20877;-80
2024/01/31 11:24:46;;;;;;;21.37;20.17;;;;;;;;;;5074194;28;20515;-81
2024/01/31 11:27:13;;;;;;;21.80;20.50;;;;;;;;;;5074395;28;20420;-81
2024/01/31 11:29:40;;;;;;;21.90;20.20;;;;;;;;;;5075381;28;20440;-81
2024/01/31 11:32:09;;;;;;;21.60;20.30;;;;;;;;;;5075126;28;21050;-81
2024/01/31 11:34:37;;;;;;;22.10;20.70;;;;;;;;;;5074734;28;20452;-81
2024/01/31 11:37:04;;;;;;;22.87;21.33;;;;;;;;;;5074420;28;20442;-81
2024/01/31 11:39:33;;;;;;;22.10;20.80;;;;;;;;;;5074876;28;20465;-81
2024/01/31 11:42:01;;;;;;;22.20;20.80;;;;;;;;;;5072549;28;20459;-82
2024/01/31 11:44:29;;;;;;;21.33;20.13;;;;;;;;;;5055887;28;20439;-81
2024/01/31 11:46:56;;;;;;;22.43;20.93;;;;;;;;;;5055060;28;20446;-83
2024/01/31 11:49:23;;;;;;;22.03;20.53;;;;;;;;;;5055211;28;20467;-83
2024/01/31 11:51:52;;;;;;;21.63;20.33;;;;;;;;;;5055140;28;20450;-84
2024/01/31 11:54:19;;;;;;;22.27;20.87;;;;;;;;;;5054657;28;20427;-84
2024/01/31 11:56:47;;;;;;;22.00;20.60;;;;;;;;;;5054481;28;20455;-84
2024/01/31 11:59:14;;;;;;;22.47;21.10;;;;;;;;;;5058870;28;20470;-84
2024/01/31 12:01:41;;;;;;;22.67;21.03;;;;;;;;;;5060995;28;20482;-85
2024/01/31 12:04:08;;;;;;;21.90;20.60;;;;;;;;;;5071033;28;20416;-85
2024/01/31 12:06:37;;;;;;;22.67;21.27;;;;;;;;;;5079795;28;20877;-83
2024/01/31 12:09:06;;;;;;;23.07;21.67;;;;;;;;;;5080941;28;20466;-84
2024/01/31 12:11:33;;;;;;;22.57;21.10;;;;;;;;;;5081852;28;20425;-82
2024/01/31 12:14:01;;;;;;;23.60;22.30;;;;;;;;;;5074167;28;20417;-82
2024/01/31 12:16:40;;;;;;;23.00;21.70;;;;;;;;;;5065618;28;20446;-82
2024/01/31 12:19:10;;;;;;;22.63;21.33;;;;;;;;;;5063707;28;20554;-85
2024/01/31 12:21:43;;;;;;;22.37;21.17;;;;;;;;;;5075067;28;20505;-80
2024/01/31 12:24:12;;;;;;;23.47;22.17;;;;;;;;;;5079349;28;20425;-80
2024/01/31 12:26:39;;;;;;;23.80;22.40;;;;;;;;;;5078854;28;20455;-79
2024/01/31 12:29:06;;;;;;;23.50;22.10;;;;;;;;;;5079011;28;20851;-79
2024/01/31 12:31:33;;;;;;;23.50;22.10;;;;;;;;;;5079051;28;20438;-82
2024/01/31 12:34:02;;;;;;;23.67;22.23;;;;;;;;;;5085638;28;20475;-82
2024/01/31 12:36:29;;;;;;;23.60;22.10;;;;;;;;;;5085606;28;20481;-85
2024/01/31 12:38:56;;;;;;;23.67;22.10;;;;;;;;;;5078489;28;20512;-85
2024/01/31 12:41:24;;;;;;;23.03;21.63;;;;;;;;;;5074209;28;20692;-86
2024/01/31 12:43:51;;;;;;;22.67;21.27;;;;;;;;;;5085940;28;20454;-85
2024/01/31 12:46:21;;;;;;;23.13;21.80;;;;;;;;;;5085163;28;20428;-85
2024/01/31 12:48:48;;;;;;;24.10;22.60;;;;;;;;;;5074269;28;20537;-84
2024/01/31 12:51:14;;;;;;;23.67;22.17;;;;;;;;;;5062420;28;20433;-83
2024/01/31 12:53:42;;;;;;;24.20;22.50;;;;;;;;;;5077773;28;20930;-83
2024/01/31 12:56:09;;;;;;;23.93;22.43;;;;;;;;;;5074395;28;20425;-80
2024/01/31 12:58:38;;;;;;;23.57;21.77;;;;;;;;;;5064567;28;20451;-85
2024/01/31 13:01:05;;;;;;;24.00;22.50;;;;;;;;;;5082490;28;20458;-85
2024/01/31 13:03:33;;;;;;;23.17;21.77;;;;;;;;;;5066222;28;20981;-85
2024/01/31 13:06:00;;;;;;;24.70;23.00;;;;;;;;;;5064536;28;20807;-86
2024/01/31 13:08:32;;;;;;;23.73;22.07;;;;;;;;;;5079124;28;20515;-85
2024/01/31 13:10:59;;;;;;;23.30;21.90;;;;;;;;;;5084295;28;20480;-85
2024/01/31 13:13:26;;;;;;;24.73;23.13;;;;;;;;;;5083604;28;20472;-85
2024/01/31 13:15:55;;;;;;;23.70;22.30;;;;;;;;;;5072135;28;20461;-85
2024/01/31 13:18:23;;;;;;;24.40;22.80;;;;;;;;;;5076081;28;20482;-86
2024/01/31 13:20:50;;;;;;;24.20;22.53;;;;;;;;;;5064052;28;20437;-85
2024/01/31 13:23:17;;;;;;;25.13;23.43;;;;;;;;;;5064262;28;20507;-85
2024/01/31 13:25:44;;;;;;;22.03;20.60;;;;;;;;;;5071256;28;20446;-85
2024/01/31 13:28:14;;;;;;;23.50;21.90;;;;;;;;;;5083338;28;21004;-85
2024/01/31 13:30:41;;;;;;;25.50;23.87;;;;;;;;;;5083142;28;20475;-84
2024/01/31 13:33:10;;;;;;;26.80;24.97;;;;;;;;;;5084001;28;20433;-84
2024/01/31 13:35:37;;;;;;;28.60;26.50;;;;;;;;;;5084202;28;20448;-85
2024/01/31 13:38:05;;;;;;;27.17;25.00;;;;;;;;;;5083908;28;20416;-83
2024/01/31 13:40:32;;;;;;;26.80;24.80;;;;;;;;;;5084097;28;20473;-85
2024/01/31 13:43:00;;;;;;;23.30;21.80;;;;;;;;;;5083624;28;20455;-85
2024/01/31 13:45:27;;;;;;;27.00;25.00;;;;;;;;;;5083177;28;20417;-85
2024/01/31 13:47:55;;;;;;;25.20;23.50;;;;;;;;;;5083238;28;21001;-84
2024/01/31 13:50:24;;;;;;;27.70;25.60;;;;;;;;;;5084593;28;20452;-84
2024/01/31 13:52:51;;;;;;;26.80;24.70;;;;;;;;;;5083912;28;20434;-85
2024/01/31 13:55:18;;;;;;;28.00;25.90;;;;;;;;;;5084947;28;20469;-85
2024/01/31 13:57:45;;;;;;;24.13;22.63;;;;;;;;;;5073568;28;20850;-84
2024/01/31 14:00:14;;;;;;;27.07;25.17;;;;;;;;;;5083497;28;20469;-85
2024/01/31 14:02:41;;;;;;;26.23;24.33;;;;;;;;;;5084394;28;20478;-85
2024/01/31 14:05:08;;;;;;;26.10;24.30;;;;;;;;;;5074982;28;20473;-84
2024/01/31 14:07:38;;;;;;;26.40;24.70;;;;;;;;;;5052509;28;20454;-82
2024/01/31 14:10:05;;;;;;;25.87;24.03;;;;;;;;;;5055058;28;20471;-82
2024/01/31 14:12:32;;;;;;;25.73;23.93;;;;;;;;;;5058039;28;20449;-84
2024/01/31 14:15:03;;;;;;;26.30;24.40;;;;;;;;;;5060526;28;20446;-85
2024/01/31 14:17:30;;;;;;;26.37;24.53;;;;;;;;;;5060743;28;20460;-85
2024/01/31 14:19:57;;;;;;;26.17;24.47;;;;;;;;;;5061292;28;20458;-85